createdAt,value
2022-08-17T00:00:35.030Z,6.75
2022-08-17T00:03:11.667Z,6.88
2022-08-17T00:05:48.971Z,6.53
2022-08-17T00:08:18.737Z,7.05
2022-08-17T00:10:47.089Z,7.15
2022-08-17T00:13:36.547Z,6.28
2022-08-17T00:16:08.610Z,6.72
2022-08-17T00:19:00.918Z,7.18
2022-08-17T00:21:25.327Z,11.73
2022-08-17T00:23:54.514Z,6.45
2022-08-17T00:26:34.526Z,7.00
2022-08-17T00:29:19.411Z,6.40
2022-08-17T00:31:48.529Z,6.80
2022-08-17T00:34:16.131Z,6.93
2022-08-17T00:36:43.274Z,9.48
2022-08-17T00:39:10.684Z,6.45
2022-08-17T00:41:42.101Z,7.32
2022-08-17T00:44:09.890Z,11.70
2022-08-17T00:46:41.096Z,6.82
2022-08-17T00:49:09.950Z,6.25
2022-08-17T00:51:44.062Z,6.45
2022-08-17T00:54:21.879Z,6.15
2022-08-17T00:57:06.099Z,8.75
2022-08-17T00:59:41.183Z,6.93
2022-08-17T01:02:12.757Z,11.20
2022-08-17T01:04:40.285Z,7.03
2022-08-17T01:07:08.031Z,7.57
2022-08-17T01:09:35.891Z,8.55
2022-08-17T01:12:06.747Z,8.45
2022-08-17T01:14:36.998Z,8.43
2022-08-17T01:17:05.045Z,8.40
2022-08-17T01:19:37.196Z,9.02
2022-08-17T01:22:14.370Z,9.50
2022-08-17T01:24:48.633Z,8.77
2022-08-17T01:27:18.554Z,9.18
2022-08-17T01:29:53.182Z,11.45
2022-08-17T01:32:20.546Z,10.90
2022-08-17T01:34:50.578Z,8.60
2022-08-17T01:37:20.976Z,13.27
2022-08-17T01:39:52.669Z,12.90
2022-08-17T01:42:37.955Z,12.82
2022-08-17T01:45:11.422Z,9.93
2022-08-17T01:47:38.757Z,11.02
2022-08-17T01:50:15.985Z,13.15
2022-08-17T01:52:50.998Z,14.68
2022-08-17T01:55:27.121Z,20.58
2022-08-17T01:57:54.721Z,13.43
2022-08-17T02:00:22.324Z,10.85
2022-08-17T02:02:49.577Z,15.20
2022-08-17T02:05:17.261Z,12.00
2022-08-17T02:08:00.086Z,9.65
2022-08-17T02:10:34.046Z,11.48
2022-08-17T02:13:03.398Z,14.70
2022-08-17T02:15:31.112Z,11.15
2022-08-17T02:17:58.252Z,10.32
2022-08-17T02:20:41.171Z,12.73
2022-08-17T02:23:12.418Z,9.25
2022-08-17T02:25:43.485Z,10.57
2022-08-17T02:28:11.004Z,10.20
2022-08-17T02:30:59.195Z,15.07
2022-08-17T02:33:43.239Z,13.15
2022-08-17T02:36:12.914Z,11.40
2022-08-17T02:38:41.328Z,12.23
2022-08-17T02:41:09.320Z,25.60
2022-08-17T02:43:36.875Z,14.15
2022-08-17T02:46:03.983Z,12.02
2022-08-17T02:48:32.018Z,9.07
2022-08-17T02:51:00.951Z,9.25
2022-08-17T02:53:29.773Z,10.90
2022-08-17T02:56:04.099Z,8.82
2022-08-17T02:58:35.377Z,13.52
2022-08-17T03:01:08.881Z,9.20
2022-08-17T03:03:37.723Z,12.25
2022-08-17T03:06:05.927Z,9.35
2022-08-17T03:08:34.957Z,12.65
2022-08-17T03:11:02.224Z,14.50
2022-08-17T03:13:30.935Z,10.50
2022-08-17T03:15:59.037Z,13.13
2022-08-17T03:18:28.150Z,11.35
2022-08-17T03:20:59.034Z,11.82
2022-08-17T03:23:27.535Z,16.02
2022-08-17T03:25:58.018Z,17.40
2022-08-17T03:28:26.143Z,13.45
2022-08-17T03:30:53.812Z,17.17
2022-08-17T03:33:22.005Z,14.70
2022-08-17T03:35:50.153Z,12.57
2022-08-17T03:38:18.178Z,17.05
2022-08-17T03:40:56.237Z,9.93
2022-08-17T03:43:29.640Z,13.55
2022-08-17T03:46:33.829Z,11.97
2022-08-17T03:49:25.841Z,12.23
2022-08-17T03:52:17.031Z,11.20
2022-08-17T03:55:04.097Z,13.50
2022-08-17T03:57:32.614Z,16.33
2022-08-17T04:00:00.250Z,22.40
2022-08-17T04:02:31.976Z,14.63
2022-08-17T04:04:59.783Z,17.27
2022-08-17T04:07:29.345Z,14.90
2022-08-17T04:09:58.147Z,21.52
2022-08-17T04:12:31.317Z,19.25
2022-08-17T04:14:59.562Z,14.75
2022-08-17T04:17:29.186Z,24.70
2022-08-17T04:19:56.902Z,24.60
2022-08-17T04:22:33.040Z,37.30
2022-08-17T04:25:13.912Z,36.72
2022-08-17T04:27:41.433Z,28.95
2022-08-17T04:30:09.354Z,29.92
2022-08-17T04:33:08.865Z,26.85
2022-08-17T04:35:40.218Z,23.40
2022-08-17T04:38:10.063Z,26.50
2022-08-17T04:40:56.234Z,21.35
2022-08-17T04:43:25.758Z,27.95
2022-08-17T04:46:04.841Z,23.15
2022-08-17T04:48:37.395Z,34.83
2022-08-17T04:51:10.069Z,42.05
2022-08-17T04:53:39.453Z,33.10
2022-08-17T04:56:07.393Z,26.83
2022-08-17T04:58:39.323Z,28.90
2022-08-17T05:01:07.467Z,26.92
2022-08-17T05:03:35.013Z,19.48
2022-08-17T05:06:02.109Z,8.82
2022-08-17T05:08:29.705Z,21.70
2022-08-17T05:10:57.127Z,18.88
2022-08-17T05:13:27.358Z,9.98
2022-08-17T05:15:58.021Z,7.13
2022-08-17T05:18:26.398Z,10.80
2022-08-17T05:20:54.454Z,9.13
2022-08-17T05:23:24.631Z,12.73
2022-08-17T05:25:57.190Z,17.53
2022-08-17T05:28:28.047Z,10.48
2022-08-17T05:31:00.283Z,7.47
2022-08-17T05:33:31.575Z,11.48
2022-08-17T05:38:29.561Z,10.70
2022-08-17T05:40:58.445Z,10.15
2022-08-17T05:43:31.619Z,6.13
2022-08-17T05:46:13.751Z,11.52
2022-08-17T05:48:47.324Z,9.48
2022-08-17T05:51:35.027Z,5.55
2022-08-17T05:54:23.373Z,11.00
2022-08-17T05:57:08.950Z,6.03
2022-08-17T06:00:08.375Z,5.50
2022-08-17T06:02:47.736Z,6.38
2022-08-17T06:05:41.689Z,6.03
2022-08-17T06:08:17.774Z,4.88
2022-08-17T06:11:00.314Z,3.42
2022-08-17T06:13:58.360Z,7.15
2022-08-17T06:16:34.315Z,7.60
2022-08-17T06:19:39.486Z,7.13
2022-08-17T06:22:10.834Z,6.38
2022-08-17T06:27:54.054Z,6.32
2022-08-17T06:30:28.605Z,5.18
2022-08-17T06:33:22.276Z,3.38
2022-08-17T06:36:17.654Z,4.38
2022-08-17T06:39:18.684Z,4.20
2022-08-17T06:41:59.324Z,8.43
2022-08-17T06:44:51.603Z,3.97
2022-08-17T06:47:36.797Z,4.15
2022-08-17T06:50:15.725Z,7.35
2022-08-17T06:53:05.319Z,4.03
2022-08-17T06:55:41.148Z,4.45
2022-08-17T06:58:15.802Z,4.25
2022-08-17T07:00:47.778Z,5.63
2022-08-17T07:03:37.997Z,6.60
2022-08-17T07:06:08.534Z,4.78
2022-08-17T07:08:50.717Z,6.95
2022-08-17T07:11:36.471Z,6.82
2022-08-17T07:14:23.929Z,8.48
2022-08-17T07:16:54.270Z,4.05
2022-08-17T07:19:25.689Z,7.15
2022-08-17T07:22:00.477Z,3.95
2022-08-17T07:24:57.347Z,8.05
2022-08-17T07:27:37.423Z,5.57
2022-08-17T07:30:12.298Z,3.70
2022-08-17T07:32:47.930Z,4.70
2022-08-17T07:35:34.410Z,10.02
2022-08-17T07:38:24.800Z,6.18
2022-08-17T07:40:57.922Z,4.93
2022-08-17T07:43:29.565Z,5.50
2022-08-17T07:46:36.682Z,7.85
2022-08-17T07:49:03.874Z,8.77
2022-08-17T07:51:35.584Z,8.60
2022-08-17T07:54:25.041Z,8.95
2022-08-17T07:56:53.812Z,8.00
2022-08-17T07:59:23.666Z,5.20
2022-08-17T08:01:58.229Z,4.68
2022-08-17T08:05:00.089Z,4.22
2022-08-17T08:07:21.553Z,3.97
2022-08-17T08:10:16.935Z,7.88
2022-08-17T08:12:47.048Z,3.80
2022-08-17T08:15:15.086Z,3.58
2022-08-17T08:17:59.414Z,8.73
2022-08-17T08:20:51.821Z,4.88
2022-08-17T08:23:42.871Z,4.97
2022-08-17T08:26:40.740Z,6.22
2022-08-17T08:29:19.333Z,5.78
2022-08-17T08:32:21.115Z,5.10
2022-08-17T08:35:03.619Z,3.60
2022-08-17T08:38:13.337Z,4.85
2022-08-17T08:41:02.505Z,4.63
2022-08-17T08:44:15.066Z,6.97
2022-08-17T08:46:54.495Z,6.60
2022-08-17T08:50:03.821Z,5.00
2022-08-17T08:53:19.011Z,2.95
2022-08-17T08:55:54.969Z,4.68
2022-08-17T08:58:31.582Z,3.45
2022-08-17T09:01:28.332Z,7.45
2022-08-17T09:04:25.459Z,7.65
2022-08-17T09:07:11.392Z,3.72
2022-08-17T09:10:00.544Z,3.33
2022-08-17T09:12:27.667Z,4.25
2022-08-17T09:15:02.033Z,8.75
2022-08-17T09:17:46.391Z,4.97
2022-08-17T09:20:29.259Z,5.63
2022-08-17T09:23:04.057Z,3.72
2022-08-17T09:25:35.371Z,4.78
2022-08-17T09:28:06.684Z,7.53
2022-08-17T09:31:24.210Z,3.90
2022-08-17T09:33:51.779Z,4.45
2022-08-17T09:36:45.320Z,4.75
2022-08-17T09:39:24.888Z,3.03
2022-08-17T09:42:22.920Z,5.10
2022-08-17T09:45:08.565Z,3.05
2022-08-17T09:47:46.870Z,3.58
2022-08-17T09:51:03.388Z,4.75
2022-08-17T09:53:16.154Z,7.97
2022-08-17T09:55:47.673Z,2.67
2022-08-17T09:58:50.926Z,3.95
2022-08-17T10:01:35.635Z,3.00
2022-08-17T10:04:11.237Z,3.22
2022-08-17T10:06:58.790Z,4.88
2022-08-17T10:09:37.965Z,3.65
2022-08-17T10:12:47.174Z,2.90
2022-08-17T10:15:37.196Z,5.50
2022-08-17T10:18:42.087Z,2.92
2022-08-17T10:21:34.123Z,3.78
2022-08-17T10:24:31.670Z,5.38
2022-08-17T10:27:01.696Z,3.03
2022-08-17T10:29:49.169Z,2.78
2022-08-17T10:32:27.892Z,3.60
2022-08-17T10:35:17.760Z,2.75
2022-08-17T10:37:51.106Z,4.97
2022-08-17T10:40:22.487Z,4.82
2022-08-17T10:42:56.985Z,3.25
2022-08-17T10:46:26.826Z,3.70
2022-08-17T10:49:22.758Z,2.50
2022-08-17T10:51:56.411Z,3.40
2022-08-17T10:54:45.591Z,5.00
2022-08-17T10:57:34.057Z,5.40
2022-08-17T11:00:17.309Z,6.82
2022-08-17T11:02:50.449Z,4.75
2022-08-17T11:05:31.817Z,5.57
2022-08-17T11:08:12.060Z,4.80
2022-08-17T11:10:58.132Z,9.48
2022-08-17T11:13:31.621Z,4.15
2022-08-17T11:16:37.796Z,8.73
2022-08-17T11:19:14.151Z,6.60
2022-08-17T11:22:12.023Z,3.83
2022-08-17T11:24:45.542Z,5.57
2022-08-17T11:27:26.914Z,4.25
2022-08-17T11:32:37.899Z,3.60
2022-08-17T11:35:20.793Z,2.80
2022-08-17T11:38:16.249Z,3.05
2022-08-17T11:41:05.332Z,4.85
2022-08-17T11:43:59.235Z,4.60
2022-08-17T11:48:08.944Z,3.95
2022-08-17T11:51:28.787Z,5.20
2022-08-17T11:54:33.712Z,4.05
2022-08-17T11:57:42.898Z,2.55
2022-08-17T12:00:41.459Z,13.02
2022-08-17T12:03:32.285Z,3.63
2022-08-17T12:06:30.419Z,5.85
2022-08-17T12:09:22.347Z,5.70
2022-08-17T12:12:12.007Z,7.07
2022-08-17T12:15:09.562Z,2.88
2022-08-17T12:17:41.586Z,4.22
2022-08-17T12:21:00.905Z,3.60
2022-08-17T12:23:41.601Z,3.08
2022-08-17T12:26:21.185Z,6.05
2022-08-17T12:28:53.838Z,4.05
2022-08-17T12:31:26.036Z,4.13
2022-08-17T12:33:53.448Z,2.78
2022-08-17T12:36:26.724Z,4.15
2022-08-17T12:39:14.878Z,3.92
2022-08-17T12:41:52.046Z,4.57
2022-08-17T12:44:50.824Z,8.18
2022-08-17T12:47:22.413Z,4.63
2022-08-17T12:50:00.293Z,2.72
2022-08-17T12:52:32.994Z,4.18
2022-08-17T12:55:11.294Z,2.13
2022-08-17T12:57:38.661Z,7.13
2022-08-17T13:00:21.075Z,6.95
2022-08-17T13:03:00.358Z,1.60
2022-08-17T13:05:27.794Z,4.85
2022-08-17T13:08:00.540Z,4.53
2022-08-17T13:10:35.073Z,11.98
2022-08-17T13:13:19.596Z,3.80
2022-08-17T13:16:17.219Z,6.90
2022-08-17T13:19:06.558Z,2.85
2022-08-17T13:21:45.091Z,4.45
2022-08-17T13:24:20.206Z,1.92
2022-08-17T13:26:49.805Z,3.30
2022-08-17T13:29:34.941Z,2.22
2022-08-17T13:32:13.012Z,5.90
2022-08-17T13:35:11.912Z,4.35
2022-08-17T13:38:01.484Z,5.03
2022-08-17T13:40:36.002Z,6.30
2022-08-17T13:43:04.439Z,5.15
2022-08-17T13:45:39.500Z,6.25
2022-08-17T13:48:14.686Z,13.85
2022-08-17T13:50:56.954Z,4.38
2022-08-17T13:53:33.393Z,5.00
2022-08-17T13:56:38.902Z,8.02
2022-08-17T13:59:13.802Z,6.18
2022-08-17T14:01:53.741Z,7.28
2022-08-17T14:04:32.665Z,6.90
2022-08-17T14:07:13.291Z,8.00
2022-08-17T14:12:47.965Z,2.35
2022-08-17T14:15:17.243Z,2.55
2022-08-17T14:17:44.530Z,2.08
2022-08-17T14:20:13.409Z,5.07
2022-08-17T14:22:45.589Z,5.20
2022-08-17T14:25:15.674Z,3.22
2022-08-17T14:27:52.685Z,5.53
2022-08-17T14:30:23.823Z,2.05
2022-08-17T14:32:53.334Z,2.55
2022-08-17T14:35:23.058Z,4.47
2022-08-17T14:37:51.391Z,4.65
2022-08-17T14:40:21.532Z,5.70
2022-08-17T14:42:53.857Z,4.30
2022-08-17T14:45:30.155Z,5.28
2022-08-17T14:48:08.684Z,6.03
2022-08-17T14:50:39.135Z,5.90
2022-08-17T14:53:09.129Z,5.65
2022-08-17T14:55:40.113Z,4.18
2022-08-17T14:58:11.448Z,5.05
2022-08-17T15:00:41.286Z,3.70
2022-08-17T15:03:08.695Z,3.88
2022-08-17T15:05:37.956Z,8.68
2022-08-17T15:08:06.194Z,6.50
2022-08-17T15:10:34.770Z,3.65
2022-08-17T15:13:02.231Z,3.97
2022-08-17T15:15:31.252Z,2.58
2022-08-17T15:18:00.058Z,2.63
2022-08-17T15:20:29.703Z,5.05
2022-08-17T15:22:59.051Z,3.85
2022-08-17T15:25:29.877Z,7.32
2022-08-17T15:27:58.223Z,6.00
2022-08-17T15:30:26.869Z,2.90
2022-08-17T15:32:55.453Z,2.55
2022-08-17T15:35:28.119Z,4.22
2022-08-17T15:38:10.536Z,2.60
2022-08-17T15:40:48.488Z,6.93
2022-08-17T15:43:28.574Z,5.35
2022-08-17T15:46:18.749Z,8.25
2022-08-17T15:48:49.864Z,5.32
2022-08-17T15:51:22.618Z,1.95
2022-08-17T15:54:04.499Z,4.97
2022-08-17T15:56:47.121Z,6.30
2022-08-17T15:59:14.517Z,2.42
2022-08-17T16:03:01.359Z,3.10
2022-08-17T16:04:30.929Z,7.80
2022-08-17T16:07:00.334Z,6.53
2022-08-17T16:09:27.829Z,3.85
2022-08-17T16:11:56.269Z,5.75
2022-08-17T16:14:30.301Z,7.43
2022-08-17T16:17:04.076Z,4.05
2022-08-17T16:19:32.574Z,4.88
2022-08-17T16:22:00.857Z,4.63
2022-08-17T16:24:28.385Z,8.02
2022-08-17T16:26:55.736Z,7.90
2022-08-17T16:29:23.175Z,6.65
2022-08-17T16:31:51.538Z,2.30
2022-08-17T16:34:19.070Z,4.90
2022-08-17T16:36:55.287Z,4.45
2022-08-17T16:39:29.453Z,8.77
2022-08-17T16:41:57.802Z,4.65
2022-08-17T16:44:27.572Z,5.40
2022-08-17T16:46:54.916Z,3.75
2022-08-17T16:49:35.556Z,3.00
2022-08-17T16:52:10.406Z,4.13
2022-08-17T16:54:44.018Z,6.28
2022-08-17T16:57:18.468Z,4.35
2022-08-17T16:59:50.272Z,10.05
2022-08-17T17:02:36.568Z,5.35
2022-08-17T17:05:11.805Z,4.32
2022-08-17T17:08:00.991Z,8.10
2022-08-17T17:10:44.745Z,7.90
2022-08-17T17:13:40.643Z,7.70
2022-08-17T17:16:40.427Z,7.57
2022-08-17T17:19:34.211Z,3.45
2022-08-17T17:22:20.799Z,6.78
2022-08-17T17:25:21.405Z,3.63
2022-08-17T17:28:14.857Z,5.22
2022-08-17T17:30:48.427Z,3.28
2022-08-17T17:33:24.851Z,5.60
2022-08-17T17:36:00.283Z,3.47
2022-08-17T17:38:43.258Z,3.40
2022-08-17T17:41:26.353Z,5.35
2022-08-17T17:44:02.831Z,7.80
2022-08-17T17:46:40.375Z,3.47
2022-08-17T17:49:10.678Z,9.07
2022-08-17T17:52:10.055Z,3.73
2022-08-17T17:54:56.040Z,4.60
2022-08-17T17:57:55.989Z,7.00
2022-08-17T18:00:45.054Z,9.02
2022-08-17T18:03:54.026Z,8.13
2022-08-17T18:06:33.419Z,4.28
2022-08-17T18:09:33.792Z,8.57
2022-08-17T18:12:19.873Z,5.90
2022-08-17T18:15:21.545Z,4.43
2022-08-17T18:18:17.204Z,5.13
2022-08-17T18:20:55.927Z,5.32
2022-08-17T18:23:27.898Z,10.02
2022-08-17T18:25:56.760Z,8.55
2022-08-17T18:28:34.987Z,3.75
2022-08-17T18:31:14.410Z,5.20
2022-08-17T18:33:44.398Z,7.93
2022-08-17T18:36:12.774Z,5.43
2022-08-17T18:38:43.136Z,6.13
2022-08-17T18:41:21.164Z,5.43
2022-08-17T18:44:29.283Z,5.75
2022-08-17T18:47:22.695Z,3.28
2022-08-17T18:49:57.600Z,7.38
2022-08-17T18:52:30.672Z,7.88
2022-08-17T18:55:15.302Z,3.15
2022-08-17T18:57:59.847Z,8.27
2022-08-17T19:00:29.902Z,5.80
2022-08-17T19:03:18.019Z,5.05
2022-08-17T19:05:55.568Z,7.60
2022-08-17T19:08:29.139Z,4.05
2022-08-17T19:11:17.148Z,3.47
2022-08-17T19:13:51.789Z,7.30
2022-08-17T19:16:34.111Z,5.20
2022-08-17T19:19:14.452Z,4.57
2022-08-17T19:21:47.022Z,3.70
2022-08-17T19:24:21.980Z,10.32
2022-08-17T19:26:59.832Z,7.60
2022-08-17T19:29:34.264Z,4.53
2022-08-17T19:32:02.031Z,3.28
2022-08-17T19:34:34.793Z,4.15
2022-08-17T19:37:29.953Z,5.72
2022-08-17T19:40:08.798Z,4.93
2022-08-17T19:43:06.424Z,3.58
2022-08-17T19:45:39.806Z,5.15
2022-08-17T19:48:07.200Z,5.53
2022-08-17T19:51:04.097Z,4.80
2022-08-17T19:54:06.877Z,6.57
2022-08-17T19:56:40.849Z,8.88
2022-08-17T19:59:16.878Z,9.20
2022-08-17T20:02:30.290Z,7.90
2022-08-17T20:05:03.162Z,5.13
2022-08-17T20:07:43.801Z,5.80
2022-08-17T20:10:28.827Z,6.70
2022-08-17T20:13:03.115Z,5.32
2022-08-17T20:15:37.172Z,9.32
2022-08-17T20:18:15.393Z,7.72
2022-08-17T20:20:51.722Z,4.60
2022-08-17T20:23:29.198Z,12.13
2022-08-17T20:26:19.051Z,6.93
2022-08-17T20:29:14.421Z,11.35
2022-08-17T20:31:50.563Z,6.63
2022-08-17T20:34:33.590Z,4.97
2022-08-17T20:37:14.682Z,8.20
2022-08-17T20:39:44.857Z,4.57
2022-08-17T20:42:21.214Z,5.73
2022-08-17T20:44:55.675Z,8.60
2022-08-17T20:48:27.241Z,4.22
2022-08-17T20:50:56.112Z,6.18
2022-08-17T20:54:07.056Z,5.78
2022-08-17T20:56:43.672Z,9.70
2022-08-17T20:59:26.833Z,4.93
2022-08-17T21:02:17.663Z,7.82
2022-08-17T21:04:56.412Z,7.60
2022-08-17T21:07:48.435Z,4.60
2022-08-17T21:10:29.410Z,6.97
2022-08-17T21:13:16.205Z,6.75
2022-08-17T21:15:58.991Z,5.50
2022-08-17T21:18:47.731Z,7.63
2022-08-17T21:21:24.292Z,3.67
2022-08-17T21:24:16.699Z,4.63
2022-08-17T21:27:00.371Z,7.28
2022-08-17T21:29:33.811Z,5.22
2022-08-17T21:32:05.504Z,3.83
2022-08-17T21:34:38.004Z,3.50
2022-08-17T21:37:21.906Z,10.05
2022-08-17T21:39:58.131Z,5.10
2022-08-17T21:42:29.882Z,4.15
2022-08-17T21:45:08.622Z,4.22
2022-08-17T21:47:43.508Z,5.68
2022-08-17T21:50:21.610Z,3.55
2022-08-17T21:52:54.211Z,4.22
2022-08-17T21:55:28.346Z,4.03
2022-08-17T21:58:14.326Z,4.53
2022-08-17T22:00:44.770Z,8.73
2022-08-17T22:03:24.313Z,4.53
2022-08-17T22:05:51.734Z,5.88
2022-08-17T22:08:21.927Z,5.72
2022-08-17T22:10:51.441Z,4.13
2022-08-17T22:13:18.573Z,5.60
2022-08-17T22:16:15.730Z,3.60
2022-08-17T22:18:58.215Z,5.15
2022-08-17T22:21:26.202Z,4.25
2022-08-17T22:24:06.079Z,4.20
2022-08-17T22:27:13.022Z,6.75
2022-08-17T22:29:57.413Z,5.50
2022-08-17T22:32:37.474Z,4.35
2022-08-17T22:35:26.585Z,4.68
2022-08-17T22:37:53.951Z,6.00
2022-08-17T22:40:39.386Z,7.28
2022-08-17T22:43:11.790Z,4.75
2022-08-17T22:45:51.643Z,5.75
2022-08-17T22:48:27.379Z,9.45
2022-08-17T22:51:12.882Z,6.63
2022-08-17T22:54:09.255Z,4.75
2022-08-17T22:56:55.901Z,5.05
2022-08-17T22:59:40.571Z,5.60
2022-08-17T23:02:17.285Z,7.45
2022-08-17T23:04:49.119Z,6.00
2022-08-17T23:07:17.558Z,5.28
2022-08-17T23:09:45.443Z,4.50
2022-08-17T23:12:17.880Z,9.77
2022-08-17T23:14:51.562Z,6.10
2022-08-17T23:17:19.047Z,11.68
2022-08-17T23:19:46.415Z,5.85
2022-08-17T23:22:13.637Z,6.15
2022-08-17T23:24:49.118Z,11.73
2022-08-17T23:27:19.336Z,5.47
2022-08-17T23:29:48.725Z,4.68
2022-08-17T23:32:18.542Z,6.53
2022-08-17T23:34:47.808Z,9.30
2022-08-17T23:37:16.299Z,6.75
2022-08-17T23:39:46.651Z,5.30
2022-08-17T23:42:22.035Z,5.10
2022-08-17T23:44:49.422Z,5.45
2022-08-17T23:47:16.535Z,8.23
2022-08-17T23:49:43.757Z,8.77
2022-08-17T23:52:15.222Z,7.97
2022-08-17T23:54:46.795Z,10.98
2022-08-17T23:57:17.736Z,6.32
2022-08-17T23:59:45.093Z,5.28
